sensor_id;sensor_type;location;lat;lon;timestamp;temperature;humidity
50955;DHT22;36966;48.064;-0.792;2022-07-22T00:01:00;27.80;44.20
50955;DHT22;36966;48.064;-0.792;2022-07-22T00:03:20;27.80;44.20
50955;DHT22;36966;48.064;-0.792;2022-07-22T00:05:39;27.80;44.30
50955;DHT22;36966;48.064;-0.792;2022-07-22T00:07:58;27.80;44.30
50955;DHT22;36966;48.064;-0.792;2022-07-22T00:10:18;27.80;44.30
50955;DHT22;36966;48.064;-0.792;2022-07-22T00:12:38;27.80;44.30
50955;DHT22;36966;48.064;-0.792;2022-07-22T00:14:58;27.80;44.30
50955;DHT22;36966;48.064;-0.792;2022-07-22T00:17:17;27.80;44.30
50955;DHT22;36966;48.064;-0.792;2022-07-22T00:19:36;27.80;44.30
50955;DHT22;36966;48.064;-0.792;2022-07-22T00:21:56;27.70;44.40
50955;DHT22;36966;48.064;-0.792;2022-07-22T00:24:15;27.80;44.40
50955;DHT22;36966;48.064;-0.792;2022-07-22T00:26:34;27.70;44.40
50955;DHT22;36966;48.064;-0.792;2022-07-22T00:28:54;27.80;44.40
50955;DHT22;36966;48.064;-0.792;2022-07-22T00:31:13;27.80;44.40
50955;DHT22;36966;48.064;-0.792;2022-07-22T00:33:32;27.70;44.50
50955;DHT22;36966;48.064;-0.792;2022-07-22T00:35:51;27.80;44.40
50955;DHT22;36966;48.064;-0.792;2022-07-22T00:38:11;27.70;44.50
50955;DHT22;36966;48.064;-0.792;2022-07-22T00:40:30;27.70;44.50
50955;DHT22;36966;48.064;-0.792;2022-07-22T00:42:49;27.70;44.50
50955;DHT22;36966;48.064;-0.792;2022-07-22T00:45:10;27.70;44.50
50955;DHT22;36966;48.064;-0.792;2022-07-22T00:47:30;27.70;44.50
50955;DHT22;36966;48.064;-0.792;2022-07-22T00:49:49;27.70;44.50
50955;DHT22;36966;48.064;-0.792;2022-07-22T00:52:08;27.70;44.50
50955;DHT22;36966;48.064;-0.792;2022-07-22T00:54:28;27.70;44.50
50955;DHT22;36966;48.064;-0.792;2022-07-22T00:56:47;27.70;44.60
50955;DHT22;36966;48.064;-0.792;2022-07-22T00:59:09;27.70;44.50
50955;DHT22;36966;48.064;-0.792;2022-07-22T01:01:29;27.70;44.50
50955;DHT22;36966;48.064;-0.792;2022-07-22T01:03:48;27.70;44.50
50955;DHT22;36966;48.064;-0.792;2022-07-22T01:06:08;27.70;44.50
50955;DHT22;36966;48.064;-0.792;2022-07-22T01:08:28;27.70;44.50
50955;DHT22;36966;48.064;-0.792;2022-07-22T01:10:47;27.70;44.60
50955;DHT22;36966;48.064;-0.792;2022-07-22T01:13:07;27.70;44.60
50955;DHT22;36966;48.064;-0.792;2022-07-22T01:15:26;27.70;44.60
50955;DHT22;36966;48.064;-0.792;2022-07-22T01:17:46;27.70;44.60
50955;DHT22;36966;48.064;-0.792;2022-07-22T01:20:07;27.70;44.60
50955;DHT22;36966;48.064;-0.792;2022-07-22T01:22:27;27.70;44.60
50955;DHT22;36966;48.064;-0.792;2022-07-22T01:24:46;27.70;44.70
50955;DHT22;36966;48.064;-0.792;2022-07-22T01:27:05;27.70;44.70
50955;DHT22;36966;48.064;-0.792;2022-07-22T01:29:25;27.70;44.70
50955;DHT22;36966;48.064;-0.792;2022-07-22T01:31:45;27.70;44.70
50955;DHT22;36966;48.064;-0.792;2022-07-22T01:34:04;27.70;44.70
50955;DHT22;36966;48.064;-0.792;2022-07-22T01:36:24;27.70;44.70
50955;DHT22;36966;48.064;-0.792;2022-07-22T01:38:43;27.60;44.70
50955;DHT22;36966;48.064;-0.792;2022-07-22T01:41:02;27.60;44.70
50955;DHT22;36966;48.064;-0.792;2022-07-22T01:43:22;27.70;44.70
50955;DHT22;36966;48.064;-0.792;2022-07-22T01:45:41;27.60;44.70
50955;DHT22;36966;48.064;-0.792;2022-07-22T01:48:01;27.60;44.70
50955;DHT22;36966;48.064;-0.792;2022-07-22T01:50:20;27.60;44.70
50955;DHT22;36966;48.064;-0.792;2022-07-22T01:52:39;27.60;44.70
50955;DHT22;36966;48.064;-0.792;2022-07-22T01:54:59;27.60;44.60
50955;DHT22;36966;48.064;-0.792;2022-07-22T01:57:18;27.60;44.60
50955;DHT22;36966;48.064;-0.792;2022-07-22T01:59:37;27.60;44.70
50955;DHT22;36966;48.064;-0.792;2022-07-22T02:01:56;27.60;44.70
50955;DHT22;36966;48.064;-0.792;2022-07-22T02:04:15;27.60;44.60
50955;DHT22;36966;48.064;-0.792;2022-07-22T02:06:34;27.60;44.70
50955;DHT22;36966;48.064;-0.792;2022-07-22T02:08:53;27.60;44.70
50955;DHT22;36966;48.064;-0.792;2022-07-22T02:11:13;27.60;44.70
50955;DHT22;36966;48.064;-0.792;2022-07-22T02:13:32;27.60;44.70
50955;DHT22;36966;48.064;-0.792;2022-07-22T02:15:51;27.50;44.70
50955;DHT22;36966;48.064;-0.792;2022-07-22T02:18:16;27.60;44.70
50955;DHT22;36966;48.064;-0.792;2022-07-22T02:20:36;27.50;44.70
50955;DHT22;36966;48.064;-0.792;2022-07-22T02:22:56;27.60;44.70
50955;DHT22;36966;48.064;-0.792;2022-07-22T02:25:15;27.50;44.70
50955;DHT22;36966;48.064;-0.792;2022-07-22T02:27:34;27.50;44.70
50955;DHT22;36966;48.064;-0.792;2022-07-22T02:29:54;27.50;44.70
50955;DHT22;36966;48.064;-0.792;2022-07-22T02:32:13;27.50;44.70
50955;DHT22;36966;48.064;-0.792;2022-07-22T02:34:32;27.50;44.70
50955;DHT22;36966;48.064;-0.792;2022-07-22T02:36:52;27.50;44.70
50955;DHT22;36966;48.064;-0.792;2022-07-22T02:39:12;27.50;44.70
50955;DHT22;36966;48.064;-0.792;2022-07-22T02:41:31;27.50;44.70
50955;DHT22;36966;48.064;-0.792;2022-07-22T02:43:51;27.50;44.70
50955;DHT22;36966;48.064;-0.792;2022-07-22T02:46:12;27.50;44.70
50955;DHT22;36966;48.064;-0.792;2022-07-22T02:48:32;27.50;44.70
50955;DHT22;36966;48.064;-0.792;2022-07-22T02:50:52;27.50;44.70
50955;DHT22;36966;48.064;-0.792;2022-07-22T02:53:11;27.50;44.70
50955;DHT22;36966;48.064;-0.792;2022-07-22T02:55:30;27.50;44.70
50955;DHT22;36966;48.064;-0.792;2022-07-22T02:57:50;27.50;44.70
50955;DHT22;36966;48.064;-0.792;2022-07-22T03:00:10;27.50;44.80
50955;DHT22;36966;48.064;-0.792;2022-07-22T03:02:30;27.50;44.70
50955;DHT22;36966;48.064;-0.792;2022-07-22T03:04:50;27.40;44.80
50955;DHT22;36966;48.064;-0.792;2022-07-22T03:07:09;27.50;44.80
50955;DHT22;36966;48.064;-0.792;2022-07-22T03:09:28;27.50;44.70
50955;DHT22;36966;48.064;-0.792;2022-07-22T03:11:47;27.40;44.70
50955;DHT22;36966;48.064;-0.792;2022-07-22T03:14:06;27.50;44.80
50955;DHT22;36966;48.064;-0.792;2022-07-22T03:16:25;27.50;44.70
50955;DHT22;36966;48.064;-0.792;2022-07-22T03:18:45;27.40;44.70
50955;DHT22;36966;48.064;-0.792;2022-07-22T03:21:04;27.40;44.70
50955;DHT22;36966;48.064;-0.792;2022-07-22T03:23:23;27.40;44.70
50955;DHT22;36966;48.064;-0.792;2022-07-22T03:25:42;27.40;44.70
50955;DHT22;36966;48.064;-0.792;2022-07-22T03:28:02;27.40;44.80
50955;DHT22;36966;48.064;-0.792;2022-07-22T03:30:21;27.40;44.80
50955;DHT22;36966;48.064;-0.792;2022-07-22T03:32:40;27.40;44.80
50955;DHT22;36966;48.064;-0.792;2022-07-22T03:35:04;27.40;44.70
50955;DHT22;36966;48.064;-0.792;2022-07-22T03:37:24;27.40;44.80
50955;DHT22;36966;48.064;-0.792;2022-07-22T03:39:43;27.40;44.80
50955;DHT22;36966;48.064;-0.792;2022-07-22T03:42:03;27.40;44.80
50955;DHT22;36966;48.064;-0.792;2022-07-22T03:44:22;27.40;44.80
50955;DHT22;36966;48.064;-0.792;2022-07-22T03:46:41;27.40;44.80
50955;DHT22;36966;48.064;-0.792;2022-07-22T03:49:00;27.40;44.80
50955;DHT22;36966;48.064;-0.792;2022-07-22T03:51:20;27.40;44.80
50955;DHT22;36966;48.064;-0.792;2022-07-22T03:53:39;27.40;44.80
50955;DHT22;36966;48.064;-0.792;2022-07-22T03:55:59;27.30;44.80
50955;DHT22;36966;48.064;-0.792;2022-07-22T03:58:19;27.30;44.80
50955;DHT22;36966;48.064;-0.792;2022-07-22T04:00:38;27.30;44.80
50955;DHT22;36966;48.064;-0.792;2022-07-22T04:02:57;27.40;44.80
50955;DHT22;36966;48.064;-0.792;2022-07-22T04:05:16;27.30;44.70
50955;DHT22;36966;48.064;-0.792;2022-07-22T04:07:35;27.30;44.80
50955;DHT22;36966;48.064;-0.792;2022-07-22T04:09:55;27.30;44.80
50955;DHT22;36966;48.064;-0.792;2022-07-22T04:12:23;27.30;44.80
50955;DHT22;36966;48.064;-0.792;2022-07-22T04:14:42;27.30;44.80
50955;DHT22;36966;48.064;-0.792;2022-07-22T04:17:01;27.30;44.90
50955;DHT22;36966;48.064;-0.792;2022-07-22T04:19:21;27.30;44.80
50955;DHT22;36966;48.064;-0.792;2022-07-22T04:21:40;27.30;44.80
50955;DHT22;36966;48.064;-0.792;2022-07-22T04:23:59;27.30;44.80
50955;DHT22;36966;48.064;-0.792;2022-07-22T04:26:18;27.30;44.80
50955;DHT22;36966;48.064;-0.792;2022-07-22T04:28:38;27.30;44.80
50955;DHT22;36966;48.064;-0.792;2022-07-22T04:30:57;27.30;44.80
50955;DHT22;36966;48.064;-0.792;2022-07-22T04:33:16;27.30;44.80
50955;DHT22;36966;48.064;-0.792;2022-07-22T04:35:35;27.30;44.90
50955;DHT22;36966;48.064;-0.792;2022-07-22T04:37:54;27.30;44.90
50955;DHT22;36966;48.064;-0.792;2022-07-22T04:40:13;27.30;44.80
50955;DHT22;36966;48.064;-0.792;2022-07-22T04:42:32;27.20;44.90
50955;DHT22;36966;48.064;-0.792;2022-07-22T04:44:52;27.30;44.90
50955;DHT22;36966;48.064;-0.792;2022-07-22T04:47:11;27.30;44.90
50955;DHT22;36966;48.064;-0.792;2022-07-22T04:49:31;27.20;44.90
50955;DHT22;36966;48.064;-0.792;2022-07-22T04:51:50;27.30;44.90
50955;DHT22;36966;48.064;-0.792;2022-07-22T04:54:09;27.30;44.90
50955;DHT22;36966;48.064;-0.792;2022-07-22T04:56:28;27.20;44.90
50955;DHT22;36966;48.064;-0.792;2022-07-22T04:58:47;27.20;44.90
50955;DHT22;36966;48.064;-0.792;2022-07-22T05:01:06;27.30;44.90
50955;DHT22;36966;48.064;-0.792;2022-07-22T05:03:26;27.20;44.90
50955;DHT22;36966;48.064;-0.792;2022-07-22T05:05:45;27.30;44.90
50955;DHT22;36966;48.064;-0.792;2022-07-22T05:08:05;27.20;44.90
50955;DHT22;36966;48.064;-0.792;2022-07-22T05:10:24;27.20;44.90
50955;DHT22;36966;48.064;-0.792;2022-07-22T05:12:43;27.20;44.90
50955;DHT22;36966;48.064;-0.792;2022-07-22T05:15:03;27.20;44.90
50955;DHT22;36966;48.064;-0.792;2022-07-22T05:17:22;27.20;44.90
50955;DHT22;36966;48.064;-0.792;2022-07-22T05:19:42;27.20;44.90
50955;DHT22;36966;48.064;-0.792;2022-07-22T05:22:01;27.20;45.00
50955;DHT22;36966;48.064;-0.792;2022-07-22T05:24:20;27.20;45.00
50955;DHT22;36966;48.064;-0.792;2022-07-22T05:26:39;27.20;44.90
50955;DHT22;36966;48.064;-0.792;2022-07-22T05:28:58;27.20;45.00
50955;DHT22;36966;48.064;-0.792;2022-07-22T05:31:18;27.20;45.00
50955;DHT22;36966;48.064;-0.792;2022-07-22T05:33:37;27.20;44.90
50955;DHT22;36966;48.064;-0.792;2022-07-22T05:35:56;27.20;45.00
50955;DHT22;36966;48.064;-0.792;2022-07-22T05:38:16;27.20;45.00
50955;DHT22;36966;48.064;-0.792;2022-07-22T05:40:35;27.20;45.00
50955;DHT22;36966;48.064;-0.792;2022-07-22T05:42:55;27.20;45.00
50955;DHT22;36966;48.064;-0.792;2022-07-22T05:45:14;27.20;45.10
50955;DHT22;36966;48.064;-0.792;2022-07-22T05:47:33;27.20;45.10
50955;DHT22;36966;48.064;-0.792;2022-07-22T05:49:52;27.20;45.00
50955;DHT22;36966;48.064;-0.792;2022-07-22T05:52:11;27.20;45.00
50955;DHT22;36966;48.064;-0.792;2022-07-22T05:54:30;27.20;45.10
50955;DHT22;36966;48.064;-0.792;2022-07-22T05:56:50;27.20;45.00
50955;DHT22;36966;48.064;-0.792;2022-07-22T05:59:09;27.20;45.10
50955;DHT22;36966;48.064;-0.792;2022-07-22T06:01:28;27.20;45.00
50955;DHT22;36966;48.064;-0.792;2022-07-22T06:03:48;27.20;45.10
50955;DHT22;36966;48.064;-0.792;2022-07-22T06:06:07;27.20;45.10
50955;DHT22;36966;48.064;-0.792;2022-07-22T06:08:28;27.20;45.00
50955;DHT22;36966;48.064;-0.792;2022-07-22T06:10:47;27.20;45.30
50955;DHT22;36966;48.064;-0.792;2022-07-22T06:13:07;27.20;45.20
50955;DHT22;36966;48.064;-0.792;2022-07-22T06:15:26;27.20;45.20
50955;DHT22;36966;48.064;-0.792;2022-07-22T06:17:45;27.20;45.20
50955;DHT22;36966;48.064;-0.792;2022-07-22T06:20:05;27.20;45.20
50955;DHT22;36966;48.064;-0.792;2022-07-22T06:22:25;27.20;45.20
50955;DHT22;36966;48.064;-0.792;2022-07-22T06:24:44;27.20;45.20
50955;DHT22;36966;48.064;-0.792;2022-07-22T06:27:04;27.20;45.30
50955;DHT22;36966;48.064;-0.792;2022-07-22T06:29:23;27.20;45.30
50955;DHT22;36966;48.064;-0.792;2022-07-22T06:31:42;27.20;45.30
50955;DHT22;36966;48.064;-0.792;2022-07-22T06:34:01;27.20;45.30
50955;DHT22;36966;48.064;-0.792;2022-07-22T06:36:24;27.20;45.30
50955;DHT22;36966;48.064;-0.792;2022-07-22T06:38:43;27.20;45.30
50955;DHT22;36966;48.064;-0.792;2022-07-22T06:41:03;27.20;45.30
50955;DHT22;36966;48.064;-0.792;2022-07-22T06:43:22;27.20;45.40
50955;DHT22;36966;48.064;-0.792;2022-07-22T06:45:41;27.20;45.40
50955;DHT22;36966;48.064;-0.792;2022-07-22T06:48:00;27.20;45.40
50955;DHT22;36966;48.064;-0.792;2022-07-22T06:50:19;27.20;45.40
50955;DHT22;36966;48.064;-0.792;2022-07-22T06:52:39;27.20;45.50
50955;DHT22;36966;48.064;-0.792;2022-07-22T06:54:59;27.20;45.50
50955;DHT22;36966;48.064;-0.792;2022-07-22T06:57:18;27.20;45.50
50955;DHT22;36966;48.064;-0.792;2022-07-22T06:59:37;27.20;45.40
50955;DHT22;36966;48.064;-0.792;2022-07-22T07:01:56;27.20;45.40
50955;DHT22;36966;48.064;-0.792;2022-07-22T07:04:15;27.20;45.50
50955;DHT22;36966;48.064;-0.792;2022-07-22T07:06:34;27.20;45.50
50955;DHT22;36966;48.064;-0.792;2022-07-22T07:08:53;27.20;45.40
50955;DHT22;36966;48.064;-0.792;2022-07-22T07:11:12;27.10;45.50
50955;DHT22;36966;48.064;-0.792;2022-07-22T07:13:31;27.20;45.50
50955;DHT22;36966;48.064;-0.792;2022-07-22T07:15:51;27.20;45.70
50955;DHT22;36966;48.064;-0.792;2022-07-22T07:18:11;27.10;45.60
50955;DHT22;36966;48.064;-0.792;2022-07-22T07:20:31;27.10;46.00
50955;DHT22;36966;48.064;-0.792;2022-07-22T07:22:50;27.10;46.00
50955;DHT22;36966;48.064;-0.792;2022-07-22T07:25:10;27.10;46.00
50955;DHT22;36966;48.064;-0.792;2022-07-22T07:27:29;27.10;46.30
50955;DHT22;36966;48.064;-0.792;2022-07-22T07:29:48;27.10;46.30
50955;DHT22;36966;48.064;-0.792;2022-07-22T07:32:07;27.10;46.50
50955;DHT22;36966;48.064;-0.792;2022-07-22T07:34:26;27.20;46.40
50955;DHT22;36966;48.064;-0.792;2022-07-22T07:36:45;27.20;46.50
50955;DHT22;36966;48.064;-0.792;2022-07-22T07:39:05;27.20;46.50
50955;DHT22;36966;48.064;-0.792;2022-07-22T07:41:25;27.20;46.70
50955;DHT22;36966;48.064;-0.792;2022-07-22T07:43:44;27.20;46.70
50955;DHT22;36966;48.064;-0.792;2022-07-22T07:46:03;27.20;46.80
50955;DHT22;36966;48.064;-0.792;2022-07-22T07:48:23;27.20;46.90
50955;DHT22;36966;48.064;-0.792;2022-07-22T07:50:42;27.20;46.90
50955;DHT22;36966;48.064;-0.792;2022-07-22T07:53:02;27.20;46.90
50955;DHT22;36966;48.064;-0.792;2022-07-22T07:55:21;27.20;47.00
50955;DHT22;36966;48.064;-0.792;2022-07-22T07:57:41;27.20;47.00
50955;DHT22;36966;48.064;-0.792;2022-07-22T08:00:01;27.20;47.00
50955;DHT22;36966;48.064;-0.792;2022-07-22T08:02:20;27.20;47.10
50955;DHT22;36966;48.064;-0.792;2022-07-22T08:04:39;27.20;47.30
50955;DHT22;36966;48.064;-0.792;2022-07-22T08:06:58;27.20;47.30
50955;DHT22;36966;48.064;-0.792;2022-07-22T08:09:18;27.20;47.20
50955;DHT22;36966;48.064;-0.792;2022-07-22T08:11:37;27.20;47.20
50955;DHT22;36966;48.064;-0.792;2022-07-22T08:13:56;27.20;47.30
50955;DHT22;36966;48.064;-0.792;2022-07-22T08:16:16;27.10;47.20
50955;DHT22;36966;48.064;-0.792;2022-07-22T08:18:35;27.20;47.40
50955;DHT22;36966;48.064;-0.792;2022-07-22T08:20:55;27.20;47.40
50955;DHT22;36966;48.064;-0.792;2022-07-22T08:23:15;27.20;47.30
50955;DHT22;36966;48.064;-0.792;2022-07-22T08:25:35;27.20;47.30
50955;DHT22;36966;48.064;-0.792;2022-07-22T08:27:55;27.20;47.30
50955;DHT22;36966;48.064;-0.792;2022-07-22T08:30:15;27.20;47.30
50955;DHT22;36966;48.064;-0.792;2022-07-22T08:32:34;27.20;47.20
50955;DHT22;36966;48.064;-0.792;2022-07-22T08:34:54;27.20;47.20
50955;DHT22;36966;48.064;-0.792;2022-07-22T08:37:13;27.20;47.30
50955;DHT22;36966;48.064;-0.792;2022-07-22T08:39:32;27.20;47.20
50955;DHT22;36966;48.064;-0.792;2022-07-22T08:41:54;27.20;47.30
50955;DHT22;36966;48.064;-0.792;2022-07-22T08:44:14;27.20;47.50
50955;DHT22;36966;48.064;-0.792;2022-07-22T08:46:34;27.20;47.50
50955;DHT22;36966;48.064;-0.792;2022-07-22T08:48:53;27.20;47.60
50955;DHT22;36966;48.064;-0.792;2022-07-22T08:51:14;27.20;47.70
50955;DHT22;36966;48.064;-0.792;2022-07-22T08:53:33;27.20;47.60
50955;DHT22;36966;48.064;-0.792;2022-07-22T08:55:53;27.30;47.70
50955;DHT22;36966;48.064;-0.792;2022-07-22T08:58:12;27.20;47.70
50955;DHT22;36966;48.064;-0.792;2022-07-22T09:00:32;27.30;47.70
50955;DHT22;36966;48.064;-0.792;2022-07-22T09:02:52;27.30;47.70
50955;DHT22;36966;48.064;-0.792;2022-07-22T09:05:13;27.20;47.80
50955;DHT22;36966;48.064;-0.792;2022-07-22T09:07:35;27.30;47.80
50955;DHT22;36966;48.064;-0.792;2022-07-22T09:09:56;27.30;47.80
50955;DHT22;36966;48.064;-0.792;2022-07-22T09:12:16;27.30;47.90
50955;DHT22;36966;48.064;-0.792;2022-07-22T09:14:52;27.30;47.80
50955;DHT22;36966;48.064;-0.792;2022-07-22T09:17:32;27.30;47.90
50955;DHT22;36966;48.064;-0.792;2022-07-22T09:19:59;27.30;48.00
50955;DHT22;36966;48.064;-0.792;2022-07-22T09:22:41;27.30;48.00
50955;DHT22;36966;48.064;-0.792;2022-07-22T09:25:37;27.30;48.10
50955;DHT22;36966;48.064;-0.792;2022-07-22T09:30:26;27.30;48.20
50955;DHT22;36966;48.064;-0.792;2022-07-22T09:32:46;27.30;48.20
50955;DHT22;36966;48.064;-0.792;2022-07-22T09:35:06;27.30;48.30
50955;DHT22;36966;48.064;-0.792;2022-07-22T09:37:26;27.30;48.20
50955;DHT22;36966;48.064;-0.792;2022-07-22T09:39:45;27.30;48.30
50955;DHT22;36966;48.064;-0.792;2022-07-22T09:42:06;27.30;48.30
50955;DHT22;36966;48.064;-0.792;2022-07-22T09:44:25;27.30;48.40
50955;DHT22;36966;48.064;-0.792;2022-07-22T09:46:45;27.30;48.40
50955;DHT22;36966;48.064;-0.792;2022-07-22T09:49:04;27.40;48.40
50955;DHT22;36966;48.064;-0.792;2022-07-22T09:51:23;27.40;48.50
50955;DHT22;36966;48.064;-0.792;2022-07-22T09:53:43;27.30;48.50
50955;DHT22;36966;48.064;-0.792;2022-07-22T09:56:05;27.30;48.50
50955;DHT22;36966;48.064;-0.792;2022-07-22T09:58:25;27.40;48.50
50955;DHT22;36966;48.064;-0.792;2022-07-22T10:00:45;27.30;48.60
50955;DHT22;36966;48.064;-0.792;2022-07-22T10:03:06;27.30;48.50
50955;DHT22;36966;48.064;-0.792;2022-07-22T10:05:28;27.30;48.60
50955;DHT22;36966;48.064;-0.792;2022-07-22T10:07:48;27.30;48.60
50955;DHT22;36966;48.064;-0.792;2022-07-22T10:10:10;27.30;48.60
50955;DHT22;36966;48.064;-0.792;2022-07-22T10:12:31;27.30;48.60
50955;DHT22;36966;48.064;-0.792;2022-07-22T10:14:50;27.30;48.50
50955;DHT22;36966;48.064;-0.792;2022-07-22T10:17:14;27.30;48.60
50955;DHT22;36966;48.064;-0.792;2022-07-22T10:19:34;27.30;48.60
50955;DHT22;36966;48.064;-0.792;2022-07-22T10:21:54;27.30;48.60
50955;DHT22;36966;48.064;-0.792;2022-07-22T10:24:16;27.30;48.50
50955;DHT22;36966;48.064;-0.792;2022-07-22T10:29:32;27.30;48.50
50955;DHT22;36966;48.064;-0.792;2022-07-22T10:40:17;27.30;48.50
50955;DHT22;36966;48.064;-0.792;2022-07-22T10:45:30;27.30;48.50
50955;DHT22;36966;48.064;-0.792;2022-07-22T10:47:56;27.30;48.60
50955;DHT22;36966;48.064;-0.792;2022-07-22T10:52:57;27.30;48.80
50955;DHT22;36966;48.064;-0.792;2022-07-22T10:55:21;27.30;48.70
50955;DHT22;36966;48.064;-0.792;2022-07-22T10:57:40;27.30;48.70
50955;DHT22;36966;48.064;-0.792;2022-07-22T11:00:00;27.30;48.70
50955;DHT22;36966;48.064;-0.792;2022-07-22T11:02:19;27.30;48.70
50955;DHT22;36966;48.064;-0.792;2022-07-22T11:04:39;27.30;48.80
50955;DHT22;36966;48.064;-0.792;2022-07-22T11:06:59;27.30;48.80
50955;DHT22;36966;48.064;-0.792;2022-07-22T11:09:23;27.30;48.80
50955;DHT22;36966;48.064;-0.792;2022-07-22T11:11:53;27.30;48.90
50955;DHT22;36966;48.064;-0.792;2022-07-22T11:16:50;27.30;48.80
50955;DHT22;36966;48.064;-0.792;2022-07-22T11:19:09;27.30;48.90
50955;DHT22;36966;48.064;-0.792;2022-07-22T11:21:30;27.30;48.70
50955;DHT22;36966;48.064;-0.792;2022-07-22T11:23:51;27.30;48.90
50955;DHT22;36966;48.064;-0.792;2022-07-22T11:26:13;27.30;48.90
50955;DHT22;36966;48.064;-0.792;2022-07-22T11:28:41;27.30;49.00
50955;DHT22;36966;48.064;-0.792;2022-07-22T11:31:09;27.30;49.10
50955;DHT22;36966;48.064;-0.792;2022-07-22T11:33:28;27.30;49.30
50955;DHT22;36966;48.064;-0.792;2022-07-22T11:36:05;27.30;49.60
50955;DHT22;36966;48.064;-0.792;2022-07-22T11:38:43;27.30;49.80
50955;DHT22;36966;48.064;-0.792;2022-07-22T11:41:02;27.30;50.00
50955;DHT22;36966;48.064;-0.792;2022-07-22T11:43:22;27.30;50.10
50955;DHT22;36966;48.064;-0.792;2022-07-22T11:45:57;27.30;50.30
50955;DHT22;36966;48.064;-0.792;2022-07-22T11:48:19;27.30;50.50
50955;DHT22;36966;48.064;-0.792;2022-07-22T11:50:39;27.30;50.40
50955;DHT22;36966;48.064;-0.792;2022-07-22T11:53:02;27.30;50.50
50955;DHT22;36966;48.064;-0.792;2022-07-22T11:55:21;27.30;50.60
50955;DHT22;36966;48.064;-0.792;2022-07-22T11:57:47;27.20;50.60
50955;DHT22;36966;48.064;-0.792;2022-07-22T12:00:07;27.30;50.60
50955;DHT22;36966;48.064;-0.792;2022-07-22T12:02:26;27.30;50.50
50955;DHT22;36966;48.064;-0.792;2022-07-22T12:04:47;27.30;50.60
50955;DHT22;36966;48.064;-0.792;2022-07-22T12:07:07;27.20;50.60
50955;DHT22;36966;48.064;-0.792;2022-07-22T12:09:35;27.20;50.70
50955;DHT22;36966;48.064;-0.792;2022-07-22T12:11:56;27.20;50.70
50955;DHT22;36966;48.064;-0.792;2022-07-22T12:14:22;27.20;50.70
50955;DHT22;36966;48.064;-0.792;2022-07-22T12:16:44;27.30;50.70
50955;DHT22;36966;48.064;-0.792;2022-07-22T12:19:13;27.30;50.80
50955;DHT22;36966;48.064;-0.792;2022-07-22T12:21:35;27.30;50.70
50955;DHT22;36966;48.064;-0.792;2022-07-22T12:24:06;27.30;50.80
50955;DHT22;36966;48.064;-0.792;2022-07-22T12:26:48;27.30;50.70
50955;DHT22;36966;48.064;-0.792;2022-07-22T12:29:30;27.30;50.90
50955;DHT22;36966;48.064;-0.792;2022-07-22T12:31:55;27.30;50.80
50955;DHT22;36966;48.064;-0.792;2022-07-22T12:34:15;27.30;50.90
50955;DHT22;36966;48.064;-0.792;2022-07-22T12:36:35;27.30;50.90
50955;DHT22;36966;48.064;-0.792;2022-07-22T12:38:55;27.30;51.00
50955;DHT22;36966;48.064;-0.792;2022-07-22T12:41:27;27.30;51.00
50955;DHT22;36966;48.064;-0.792;2022-07-22T12:43:50;27.30;51.00
50955;DHT22;36966;48.064;-0.792;2022-07-22T12:46:09;27.30;51.00
50955;DHT22;36966;48.064;-0.792;2022-07-22T12:48:28;27.30;51.00
50955;DHT22;36966;48.064;-0.792;2022-07-22T12:50:55;27.20;51.00
50955;DHT22;36966;48.064;-0.792;2022-07-22T12:53:16;27.30;51.00
50955;DHT22;36966;48.064;-0.792;2022-07-22T12:55:38;27.20;50.90
50955;DHT22;36966;48.064;-0.792;2022-07-22T12:57:57;27.20;51.00
50955;DHT22;36966;48.064;-0.792;2022-07-22T13:00:23;27.20;51.00
50955;DHT22;36966;48.064;-0.792;2022-07-22T13:02:42;27.20;51.00
50955;DHT22;36966;48.064;-0.792;2022-07-22T13:05:02;27.20;51.10
50955;DHT22;36966;48.064;-0.792;2022-07-22T13:07:22;27.20;51.10
50955;DHT22;36966;48.064;-0.792;2022-07-22T13:09:41;27.20;51.20
50955;DHT22;36966;48.064;-0.792;2022-07-22T13:12:01;27.20;51.30
50955;DHT22;36966;48.064;-0.792;2022-07-22T13:14:21;27.20;51.40
50955;DHT22;36966;48.064;-0.792;2022-07-22T13:16:40;27.20;51.50
50955;DHT22;36966;48.064;-0.792;2022-07-22T13:19:00;27.20;51.40
50955;DHT22;36966;48.064;-0.792;2022-07-22T13:21:19;27.20;51.60
50955;DHT22;36966;48.064;-0.792;2022-07-22T13:23:38;27.20;51.60
50955;DHT22;36966;48.064;-0.792;2022-07-22T13:25:58;27.20;51.60
50955;DHT22;36966;48.064;-0.792;2022-07-22T13:28:18;27.20;51.50
50955;DHT22;36966;48.064;-0.792;2022-07-22T13:30:37;27.20;51.80
50955;DHT22;36966;48.064;-0.792;2022-07-22T13:32:56;27.20;51.80
50955;DHT22;36966;48.064;-0.792;2022-07-22T13:35:17;27.20;51.70
50955;DHT22;36966;48.064;-0.792;2022-07-22T13:37:36;27.20;51.70
50955;DHT22;36966;48.064;-0.792;2022-07-22T13:39:55;27.20;51.70
50955;DHT22;36966;48.064;-0.792;2022-07-22T13:42:16;27.20;52.00
50955;DHT22;36966;48.064;-0.792;2022-07-22T13:44:39;27.20;52.00
50955;DHT22;36966;48.064;-0.792;2022-07-22T13:46:58;27.20;51.90
50955;DHT22;36966;48.064;-0.792;2022-07-22T13:49:18;27.20;52.10
50955;DHT22;36966;48.064;-0.792;2022-07-22T13:51:38;27.20;52.10
50955;DHT22;36966;48.064;-0.792;2022-07-22T13:53:57;27.20;52.20
50955;DHT22;36966;48.064;-0.792;2022-07-22T13:56:17;27.20;52.20
50955;DHT22;36966;48.064;-0.792;2022-07-22T13:58:39;27.20;52.30
50955;DHT22;36966;48.064;-0.792;2022-07-22T14:00:59;27.20;52.20
50955;DHT22;36966;48.064;-0.792;2022-07-22T14:03:19;27.20;52.40
50955;DHT22;36966;48.064;-0.792;2022-07-22T14:05:38;27.20;52.30
50955;DHT22;36966;48.064;-0.792;2022-07-22T14:07:58;27.20;52.40
50955;DHT22;36966;48.064;-0.792;2022-07-22T14:10:17;27.20;52.30
50955;DHT22;36966;48.064;-0.792;2022-07-22T14:12:37;27.20;52.30
50955;DHT22;36966;48.064;-0.792;2022-07-22T14:14:56;27.20;52.40
50955;DHT22;36966;48.064;-0.792;2022-07-22T14:17:16;27.20;52.30
50955;DHT22;36966;48.064;-0.792;2022-07-22T14:19:35;27.20;52.20
50955;DHT22;36966;48.064;-0.792;2022-07-22T14:21:54;27.30;52.30
50955;DHT22;36966;48.064;-0.792;2022-07-22T14:24:14;27.30;52.30
50955;DHT22;36966;48.064;-0.792;2022-07-22T14:26:34;27.20;52.20
50955;DHT22;36966;48.064;-0.792;2022-07-22T14:28:54;27.30;52.10
50955;DHT22;36966;48.064;-0.792;2022-07-22T14:31:13;27.30;52.20
50955;DHT22;36966;48.064;-0.792;2022-07-22T14:33:32;27.30;52.20
50955;DHT22;36966;48.064;-0.792;2022-07-22T14:35:51;27.30;52.20
50955;DHT22;36966;48.064;-0.792;2022-07-22T14:38:11;27.30;52.00
50955;DHT22;36966;48.064;-0.792;2022-07-22T14:40:30;27.30;52.10
50955;DHT22;36966;48.064;-0.792;2022-07-22T14:42:49;27.30;52.00
50955;DHT22;36966;48.064;-0.792;2022-07-22T14:45:09;27.30;52.00
50955;DHT22;36966;48.064;-0.792;2022-07-22T14:47:28;27.40;52.10
50955;DHT22;36966;48.064;-0.792;2022-07-22T14:49:48;27.40;52.20
50955;DHT22;36966;48.064;-0.792;2022-07-22T14:52:07;27.40;52.20
50955;DHT22;36966;48.064;-0.792;2022-07-22T14:54:26;27.40;52.10